Map

Track Data

SID SEASON NUMBER BASIN SUBBASIN NAME ISO_TIME NATURE LAT LON WMO_WIND WMO_PRES WMO_AGENCY TRACK_TYPE DIST2LAND LANDFALL IFLAG USA_AGENCY USA_ATCF_ID USA_LAT USA_LON USA_RECORD USA_STATUS USA_WIND USA_PRES USA_SSHS USA_R34_NE USA_R34_SE USA_R34_SW USA_R34_NW USA_R50_NE USA_R50_SE USA_R50_SW USA_R50_NW USA_R64_NE USA_R64_SE USA_R64_SW USA_R64_NW USA_POCI USA_ROCI USA_RMW USA_EYE TOKYO_LAT TOKYO_LON TOKYO_GRADE TOKYO_WIND TOKYO_PRES TOKYO_R50_DIR TOKYO_R50_LONG TOKYO_R50_SHORT TOKYO_R30_DIR TOKYO_R30_LONG TOKYO_R30_SHORT TOKYO_LAND CMA_LAT CMA_LON CMA_CAT CMA_WIND CMA_PRES HKO_LAT HKO_LON HKO_CAT HKO_WIND HKO_PRES NEWDELHI_LAT NEWDELHI_LON NEWDELHI_GRADE NEWDELHI_WIND NEWDELHI_PRES NEWDELHI_CI NEWDELHI_DP NEWDELHI_POCI REUNION_LAT REUNION_LON REUNION_TYPE REUNION_WIND REUNION_PRES REUNION_TNUM REUNION_CI REUNION_RMW REUNION_R34_NE REUNION_R34_SE REUNION_R34_SW REUNION_R34_NW REUNION_R50_NE REUNION_R50_SE REUNION_R50_SW REUNION_R50_NW REUNION_R64_NE REUNION_R64_SE REUNION_R64_SW REUNION_R64_NW BOM_LAT BOM_LON BOM_TYPE BOM_WIND BOM_PRES BOM_TNUM BOM_CI BOM_RMW BOM_R34_NE BOM_R34_SE BOM_R34_SW BOM_R34_NW BOM_R50_NE BOM_R50_SE BOM_R50_SW BOM_R50_NW BOM_R64_NE BOM_R64_SE BOM_R64_SW BOM_R64_NW BOM_ROCI BOM_POCI BOM_EYE BOM_POS_METHOD BOM_PRES_METHOD NADI_LAT NADI_LON NADI_CAT NADI_WIND NADI_PRES WELLINGTON_LAT WELLINGTON_LON WELLINGTON_WIND WELLINGTON_PRES DS824_LAT DS824_LON DS824_STAGE DS824_WIND DS824_PRES TD9636_LAT TD9636_LON TD9636_STAGE TD9636_WIND TD9636_PRES TD9635_LAT TD9635_LON TD9635_WIND TD9635_PRES TD9635_ROCI NEUMANN_LAT NEUMANN_LON NEUMANN_CLASS NEUMANN_WIND NEUMANN_PRES MLC_LAT MLC_LON MLC_CLASS MLC_WIND MLC_PRES USA_GUST BOM_GUST BOM_GUST_PER REUNION_GUST REUNION_GUST_PER USA_SEAHGT USA_SEARAD_NE USA_SEARAD_SE USA_SEARAD_SW USA_SEARAD_NW STORM_SPEED STORM_DIR
1976064S17146 1976 26 SP EA DAWN(SECONDA 1976-03-03 20:00:00 NR -17.0000 145.900 35 995 bom main 0 0 ______O_______ -1 -17.0000 145.900 30 35 995 3.00000 49 49 10 218
1976064S17146 1976 26 SP EA DAWN(SECONDA 1976-03-03 21:00:00 NR -17.1353 145.788 main 0 0 ______P_______ -1 -17.1353 145.788 30 33 995 10 215
1976064S17146 1976 26 SP EA DAWN(SECONDA 1976-03-03 23:00:00 NR -17.4000 145.600 30 997 bom main 0 0 ______O_______ -1 -17.4000 145.600 20 30 997 45 45 8 207
1976064S17146 1976 26 SP EA DAWN(SECONDA 1976-03-04 00:00:00 TS -17.5019 145.593 main 0 0 ______P__O__O_ -1 -17.5279 145.540 20 30 997 -17.5000 145.600 TC 35 997 -17.4000 145.800 TC 40 997 8 0
1976064S17146 1976 26 SP EA DAWN(SECONDA 1976-03-04 02:00:00 TS -17.7797 145.582 30 997 bom main 0 0 ______O__P__P_ -1 -17.8000 145.500 20 30 997 -17.8109 145.613 TC 36 996 -17.7078 145.716 TC 40 996 45 45 9 177
1976064S17146 1976 26 SP EA DAWN(SECONDA 1976-03-04 03:00:00 TS -17.9311 145.600 main 0 0 ______P__P__P_ -1 -17.9599 145.506 20 30 996 -17.9638 145.632 TC 37 996 -17.8598 145.693 TC 40 996 9 168
1976064S17146 1976 26 SP EA DAWN(SECONDA 1976-03-04 05:00:00 TS -18.2387 145.683 30 995 bom main 0 0 ______O__P__P_ -1 -18.3000 145.600 20 30 995 -18.2594 145.721 TC 39 995 -18.1567 145.727 TC 40 995 45 45 10 161
1976064S17146 1976 26 SP EA DAWN(SECONDA 1976-03-04 06:00:00 TS -18.3821 145.763 main 0 0 ______P__O__O_ -1 -18.4462 145.688 20 30 995 -18.4000 145.800 TC 40 995 -18.3000 145.800 TC 40 995 11 138
1976064S17146 1976 26 SP EA DAWN(SECONDA 1976-03-04 09:00:00 TS -18.7761 146.199 main 0 0 ______P__P__P_ -1 -18.8276 146.135 20 30 995 -18.7931 146.202 TC 40 995 -18.7077 146.260 TC 40 995 13 128
1976064S17146 1976 26 SP EA DAWN(SECONDA 1976-03-04 12:00:00 TS -19.1520 146.815 main 0 0 ______P__P__O_ -1 -19.1796 146.762 20 30 995 -19.1764 146.782 TC 40 995 -19.1000 146.900 TC 40 995 14 123
1976064S17146 1976 26 SP EA DAWN(SECONDA 1976-03-04 15:00:00 TS -19.5447 147.468 main 0 0 ______P__P__P_ -1 -19.5753 147.457 20 30 995 -19.5963 147.446 TC 40 995 -19.4625 147.501 TC 40 995 15 124
1976064S17146 1976 26 SP EA DAWN(SECONDA 1976-03-04 17:00:00 TS -19.8526 147.897 30 995 bom main 0 0 ______O__P__P_ -1 -19.9000 147.900 20 30 995 -19.9198 147.889 TC 40 995 -19.7381 147.903 TC 40 995 45 45 15 130
1976064S17146 1976 26 SP EA DAWN(SECONDA 1976-03-04 18:00:00 TS -20.0336 148.092 main 0 0 ______P__O__O_ -1 -20.1009 148.076 20 30 995 -20.1000 148.100 TC 40 995 -19.9000 148.100 TC 40 995 16 140
1976064S17146 1976 26 SP EA DAWN(SECONDA 1976-03-04 21:00:00 TS -20.6707 148.625 main 0 0 ______P__P__P_ -1 -20.7569 148.610 20 30 995 -20.7356 148.628 TC 40 995 -20.5195 148.635 TC 40 995 17 142
1976064S17146 1976 26 SP EA DAWN(SECONDA 1976-03-04 23:00:00 TS -21.1190 149.001 30 995 bom main 0 0 ______O__P__P_ -1 -21.2000 149.000 20 30 995 -21.1813 149.000 TC 40 995 -20.9757 149.002 TC 40 995 45 45 16 141
1976064S17146 1976 26 SP EA DAWN(SECONDA 1976-03-05 00:00:00 TS -21.2779 149.159 main 0 0 ______P_OO__O_ -1 -21.4031 149.216 20 33 993 -20.6000 148.600 40 990 -21.4000 149.200 TC 40 995 -21.2000 149.200 TC 40 995 16 133
1976064S17146 1976 26 SP EA DAWN(SECONDA 1976-03-05 03:00:00 TS -21.8466 149.824 main 41 15 ______P_PP__P_ -1 -21.9975 149.918 20 43 990 -21.3313 149.437 40 990 -21.9999 149.871 TC 45 991 -21.8000 149.878 TC 47 991 17 132
1976064S17146 1976 26 SP EA DAWN(SECONDA 1976-03-05 05:00:00 TS -22.2283 150.297 50 988 bom main 23 0 ______O_PP__P_ -1 -22.4000 150.400 30 50 988 3.50000 -21.8168 150.000 40 990 -22.3968 150.354 TC 48 989 -22.1969 150.359 TC 52 989 69 69 17 131
1976064S17146 1976 26 SP EA DAWN(SECONDA 1976-03-05 06:00:00 TS -22.4174 150.528 main 0 0 ______P_PO__O_ -1 -22.6107 150.631 30 50 988 -22.0589 150.283 40 990 -22.6000 150.600 TC 50 988 -22.4000 150.600 TC 55 988 19 133
1976064S17146 1976 26 SP EA DAWN(SECONDA 1976-03-05 09:00:00 TS -23.0800 151.279 main 55 55 ______P_PP__P_ -1 -23.2609 151.326 30 50 988 -22.7820 151.137 40 990 -23.2350 151.358 TC 50 988 -23.0421 151.293 TC 52 988 19 134
1976064S17146 1976 26 SP EA DAWN(SECONDA 1976-03-05 11:00:00 TS -23.5292 151.783 50 988 bom main 67 49 ______O_PP__P_ -1 -23.7000 151.800 30 50 988 3.50000 -23.2613 151.711 40 990 -23.6750 151.859 TC 50 988 -23.4805 151.761 TC 50 988 69 69 19 134
1976064S17146 1976 26 SP EA DAWN(SECONDA 1976-03-05 12:00:00 TS -23.7522 152.041 main 39 39 ______P_OO__O_ -1 -23.9089 152.063 30 50 988 -23.5000 152.000 40 990 -23.9000 152.100 TC 50 988 -23.7000 152.000 TC 50 988 19 137
1976064S17146 1976 26 SP EA DAWN(SECONDA 1976-03-05 15:00:00 TS -24.4629 152.751 main 45 0 ______P_PP__P_ -1 -24.5433 152.850 30 50 988 -24.4031 152.562 37 991 -24.5774 152.795 TC 50 988 -24.3279 152.795 TC 50 988 19 139
1976064S17146 1976 26 SP EA DAWN(SECONDA 1976-03-05 17:00:00 TS -24.9558 153.185 50 988 bom main 0 0 ______O_PP__P_ -1 -25.0000 153.300 30 50 988 3.50000 -25.0043 152.942 35 992 -25.0526 153.212 TC 50 988 -24.7664 153.287 TC 50 988 69 69 19 143
1976064S17146 1976 26 SP EA DAWN(SECONDA 1976-03-05 18:00:00 TS -25.2121 153.376 main 10 10 ______P_PO__O_ -1 -25.2439 153.471 30 49 988 -25.3046 153.133 35 993 -25.3000 153.400 TC 50 988 -25.0000 153.500 TC 50 988 18 150
1976064S17146 1976 26 SP EA DAWN(SECONDA 1976-03-05 21:00:00 TS -26.0049 153.862 main 79 79 ______P_PP__P_ -1 -26.0340 153.865 30 46 989 -26.2038 153.712 32 995 -26.0696 153.888 TC 47 989 -25.7618 153.947 TC 47 989 18 153
1976064S17146 1976 26 SP EA DAWN(SECONDA 1976-03-05 23:00:00 TS -26.5517 154.142 45 990 bom main 99 99 ______O_PP__P_ -1 -26.6000 154.100 30 45 990 3.00000 -26.8016 154.103 30 996 -26.6165 154.167 TC 45 989 -26.3137 154.180 TC 45 989 64 64 18 155
1976064S17146 1976 26 SP EA DAWN(SECONDA 1976-03-06 00:00:00 TS -26.8180 154.285 main 113 111 ______P_OO__O_ -1 -26.8834 154.250 30 43 990 -27.1000 154.300 30 997 -26.9000 154.300 TC 45 990 -26.6000 154.300 TC 45 990 19 155
1976064S17146 1976 26 SP EA DAWN(SECONDA 1976-03-06 03:00:00 TS -27.6664 154.724 main 121 121 ______P__P__P_ -1 -27.7734 154.711 30 38 992 -27.7853 154.698 TC 42 992 -27.4701 154.758 TC 42 992 19 156
1976064S17146 1976 26 SP EA DAWN(SECONDA 1976-03-06 05:00:00 TS -28.2721 155.017 35 994 bom main 137 137 ______O__P__P_ -1 -28.4000 155.000 30 35 994 3.00000 -28.3938 154.966 TC 40 993 -28.0834 155.059 TC 40 993 49 49 20 157
1976064S17146 1976 26 SP EA DAWN(SECONDA 1976-03-06 06:00:00 TS -28.5587 155.162 main 156 155 ______P__O__O_ -1 -28.7231 155.132 30 34 994 -28.7000 155.100 TC 40 994 -28.4000 155.200 TC 40 994 20 160
1976064S17146 1976 26 SP EA DAWN(SECONDA 1976-03-06 09:00:00 TS -29.5196 155.536 main 195 195 ______P_____P_ -1 -29.7215 155.483 30 31 996 TC -29.3850 155.572 TC 37 996 20 162
1976064S17146 1976 26 SP EA DAWN(SECONDA 1976-03-06 11:00:00 TS -30.1735 155.761 30 998 bom main 242 242 ______O_____P_ -1 -30.4000 155.700 20 30 998 2.50000 TC -30.0602 155.792 TC 35 997 45 45 19 160
1976064S17146 1976 26 SP EA DAWN(SECONDA 1976-03-06 12:00:00 TS -30.4000 155.900 main 255 ____________O_ -1 20 -30.4000 155.900 TC 35 998 15 152

Digital Typhoon Data and Search

About IBTrACS Database

This database is a web-friendly format of International Best Track Archive for Climate Stewardship (IBTrACS), a global best track data archive curated by NOAA dating back to 1842.

Updated: 2021-12-06